Time;durP1;ratioP1;P1;durP2;ratioP2;P2;SDS_P1;SDS_P2;PMS_P1;PMS_P2;Temp;Humidity;BMP_temperature;BMP_pressure;BME280_temperature;BME280_humidity;BME280_pressure;Samples;Min_cycle;Max_cycle;Signal;HPM_P1;HPM_P2
2022/06/14 00:03:13;;;;;;;5.07;3.00;;;;;;;;;;4992822;28;20207;-76
2022/06/14 00:05:39;;;;;;;4.93;2.60;;;;;;;;;;4994839;28;20184;-76
2022/06/14 00:08:05;;;;;;;4.93;2.80;;;;;;;;;;4993827;28;20671;-76
2022/06/14 00:10:32;;;;;;;4.77;2.80;;;;;;;;;;5002567;28;20583;-76
2022/06/14 00:12:58;;;;;;;5.43;2.90;;;;;;;;;;5003845;28;20209;-76
2022/06/14 00:15:25;;;;;;;5.20;2.60;;;;;;;;;;4998282;28;20171;-76
2022/06/14 00:17:51;;;;;;;5.57;2.70;;;;;;;;;;4995712;28;20241;-76
2022/06/14 00:20:18;;;;;;;4.40;2.87;;;;;;;;;;5001638;28;20183;-75
2022/06/14 00:22:44;;;;;;;5.27;3.00;;;;;;;;;;4995186;28;20943;-75
2022/06/14 00:25:21;;;;;;;3.70;2.40;;;;;;;;;;5001983;28;20172;-76
2022/06/14 00:27:47;;;;;;;2.93;2.33;;;;;;;;;;4997856;28;20229;-75
2022/06/14 00:30:13;;;;;;;4.60;2.60;;;;;;;;;;4995339;28;20282;-75
2022/06/14 00:32:40;;;;;;;3.60;2.27;;;;;;;;;;4999243;28;20183;-75
2022/06/14 00:35:07;;;;;;;3.57;2.30;;;;;;;;;;4999731;28;20198;-75
2022/06/14 00:37:33;;;;;;;3.03;2.30;;;;;;;;;;4995392;28;20188;-76
2022/06/14 00:40:00;;;;;;;4.67;2.90;;;;;;;;;;5001520;28;20670;-75
2022/06/14 00:42:26;;;;;;;4.03;2.60;;;;;;;;;;4993874;28;20222;-75
2022/06/14 00:45:11;;;;;;;4.33;2.90;;;;;;;;;;5003087;28;20214;-75
2022/06/14 00:47:40;;;;;;;4.27;2.60;;;;;;;;;;4988581;28;21183;-76
2022/06/14 00:50:12;;;;;;;6.10;2.67;;;;;;;;;;4985146;28;20242;-76
2022/06/14 00:52:42;;;;;;;3.70;2.87;;;;;;;;;;4994633;28;20183;-76
2022/06/14 00:55:20;;;;;;;3.37;2.73;;;;;;;;;;5005188;28;20175;-76
2022/06/14 00:57:52;;;;;;;5.33;3.10;;;;;;;;;;5016213;28;20187;-77
2022/06/14 01:00:23;;;;;;;4.03;2.90;;;;;;;;;;4997874;28;20267;-75
2022/06/14 01:02:51;;;;;;;6.00;3.30;;;;;;;;;;4993268;28;20195;-75
2022/06/14 01:05:24;;;;;;;6.27;3.10;;;;;;;;;;5000224;28;20270;-75
2022/06/14 01:07:53;;;;;;;3.90;3.33;;;;;;;;;;5014127;28;20301;-76
2022/06/14 01:10:21;;;;;;;6.10;4.10;;;;;;;;;;4999944;28;20530;-76
2022/06/14 01:12:49;;;;;;;6.97;3.80;;;;;;;;;;5018516;28;20195;-75
2022/06/14 01:15:20;;;;;;;6.17;3.93;;;;;;;;;;4997709;28;20199;-75
2022/06/14 01:17:48;;;;;;;5.90;4.20;;;;;;;;;;4992365;28;20605;-75
2022/06/14 01:20:17;;;;;;;7.13;4.30;;;;;;;;;;5005245;28;20202;-75
2022/06/14 01:22:43;;;;;;;7.27;4.17;;;;;;;;;;5003723;28;20349;-75
2022/06/14 01:25:10;;;;;;;7.67;4.67;;;;;;;;;;5003778;28;20640;-75
2022/06/14 01:27:37;;;;;;;5.20;4.20;;;;;;;;;;4994606;28;20216;-75
2022/06/14 01:30:18;;;;;;;3.93;3.00;;;;;;;;;;4999965;28;20182;-75
2022/06/14 01:32:47;;;;;;;6.07;2.93;;;;;;;;;;4995786;28;20194;-75
2022/06/14 01:35:16;;;;;;;3.50;2.67;;;;;;;;;;4993509;28;20229;-76
2022/06/14 01:37:44;;;;;;;3.83;2.60;;;;;;;;;;4990671;28;20203;-75
2022/06/14 01:40:11;;;;;;;4.70;3.00;;;;;;;;;;5006990;28;20212;-75
2022/06/14 01:42:56;;;;;;;3.33;2.60;;;;;;;;;;4992211;28;20272;-75
2022/06/14 01:45:29;;;;;;;4.87;2.90;;;;;;;;;;4997057;28;20200;-75
2022/06/14 01:48:06;;;;;;;4.50;3.10;;;;;;;;;;4994375;28;20211;-75
2022/06/14 01:53:52;;;;;;;6.80;4.30;;;;;;;;;;4992475;28;20191;-76
2022/06/14 01:56:27;;;;;;;7.77;4.07;;;;;;;;;;4999490;28;20242;-75
2022/06/14 01:59:03;;;;;;;6.80;4.40;;;;;;;;;;4991282;28;20238;-75
2022/06/14 02:01:41;;;;;;;6.23;4.40;;;;;;;;;;4997983;28;20290;-75
2022/06/14 02:04:37;;;;;;;8.60;4.40;;;;;;;;;;4996093;28;21197;-75
2022/06/14 02:07:15;;;;;;;4.90;3.83;;;;;;;;;;4990206;28;20202;-75
2022/06/14 02:09:51;;;;;;;7.33;4.37;;;;;;;;;;4999312;28;20545;-75
2022/06/14 02:12:20;;;;;;;6.53;4.70;;;;;;;;;;4998595;28;20246;-75
2022/06/14 02:14:50;;;;;;;7.50;4.30;;;;;;;;;;4992942;28;20201;-75
2022/06/14 02:17:33;;;;;;;6.07;4.73;;;;;;;;;;4996543;28;20183;-75
2022/06/14 02:20:04;;;;;;;5.43;4.00;;;;;;;;;;4993817;28;20742;-75
2022/06/14 02:22:40;;;;;;;4.70;4.20;;;;;;;;;;4993489;28;20292;-75
2022/06/14 02:25:14;;;;;;;7.40;4.50;;;;;;;;;;5009932;28;20194;-75
2022/06/14 02:27:47;;;;;;;5.63;4.90;;;;;;;;;;4988323;28;20211;-75
2022/06/14 02:30:16;;;;;;;6.17;5.30;;;;;;;;;;4994468;28;20198;-75
2022/06/14 02:32:56;;;;;;;10.17;5.30;;;;;;;;;;4997743;28;20187;-75
2022/06/14 02:35:25;;;;;;;7.70;5.43;;;;;;;;;;5007380;28;20681;-75
2022/06/14 02:38:11;;;;;;;8.10;5.30;;;;;;;;;;4985918;28;20192;-75
2022/06/14 02:40:39;;;;;;;7.53;5.50;;;;;;;;;;4992797;28;20208;-76
2022/06/14 02:43:14;;;;;;;6.90;4.93;;;;;;;;;;4997494;28;20187;-77
2022/06/14 02:45:44;;;;;;;10.47;5.10;;;;;;;;;;4993292;28;20184;-75
2022/06/14 02:48:15;;;;;;;5.20;4.70;;;;;;;;;;5001871;28;20270;-75
2022/06/14 02:50:41;;;;;;;5.63;4.47;;;;;;;;;;4997260;28;20200;-75
2022/06/14 02:53:23;;;;;;;7.50;5.17;;;;;;;;;;5013190;28;20199;-76
2022/06/14 02:56:00;;;;;;;6.87;4.70;;;;;;;;;;5004358;28;20202;-76
2022/06/14 02:58:50;;;;;;;6.57;4.70;;;;;;;;;;5001497;28;20205;-75
2022/06/14 03:01:25;;;;;;;7.77;5.47;;;;;;;;;;5006444;28;20215;-75
2022/06/14 03:04:10;;;;;;;10.00;5.10;;;;;;;;;;5001684;28;20187;-76
2022/06/14 03:06:58;;;;;;;5.60;4.70;;;;;;;;;;5013836;28;20359;-75
2022/06/14 03:09:26;;;;;;;7.77;5.73;;;;;;;;;;5000007;28;20286;-75
2022/06/14 03:11:54;;;;;;;8.57;5.30;;;;;;;;;;4995587;28;20290;-75
2022/06/14 03:14:23;;;;;;;6.10;4.73;;;;;;;;;;4992214;28;20207;-76
2022/06/14 03:16:53;;;;;;;9.03;5.10;;;;;;;;;;4989903;28;20206;-75
2022/06/14 03:19:20;;;;;;;6.60;4.90;;;;;;;;;;4993140;28;20188;-76
2022/06/14 03:22:25;;;;;;;7.00;4.47;;;;;;;;;;5013186;28;20299;-75
2022/06/14 03:24:51;;;;;;;5.40;3.10;;;;;;;;;;4955395;28;20240;-75
2022/06/14 03:27:32;;;;;;;4.70;3.10;;;;;;;;;;4940044;29;20240;-75
2022/06/14 03:30:01;;;;;;;5.23;4.17;;;;;;;;;;4969773;28;20561;-75
2022/06/14 03:32:30;;;;;;;6.10;4.80;;;;;;;;;;4999184;28;20203;-75
2022/06/14 03:35:02;;;;;;;7.40;5.03;;;;;;;;;;5004744;28;20661;-75
2022/06/14 03:37:29;;;;;;;10.23;6.33;;;;;;;;;;4995069;28;20712;-75
2022/06/14 03:39:59;;;;;;;9.63;6.87;;;;;;;;;;5000304;28;20318;-75
2022/06/14 03:42:25;;;;;;;10.27;6.80;;;;;;;;;;4998120;28;20363;-75
2022/06/14 03:44:52;;;;;;;11.97;6.93;;;;;;;;;;4996165;28;20223;-75
2022/06/14 03:47:26;;;;;;;9.60;6.80;;;;;;;;;;4995880;28;20239;-75
2022/06/14 03:50:04;;;;;;;7.27;6.30;;;;;;;;;;5009421;28;20213;-75
2022/06/14 03:53:02;;;;;;;10.20;7.07;;;;;;;;;;5000838;28;20286;-75
2022/06/14 03:55:47;;;;;;;9.33;6.47;;;;;;;;;;4974246;28;20192;-76
2022/06/14 03:58:34;;;;;;;8.87;6.27;;;;;;;;;;4992057;28;20195;-75
2022/06/14 04:01:04;;;;;;;7.97;6.47;;;;;;;;;;5007889;28;20209;-75
2022/06/14 04:03:32;;;;;;;9.50;6.50;;;;;;;;;;4998831;28;20250;-75
2022/06/14 04:06:09;;;;;;;7.90;6.40;;;;;;;;;;4996891;28;20188;-76
2022/06/14 04:08:43;;;;;;;9.33;6.90;;;;;;;;;;5002012;28;20183;-75
2022/06/14 04:11:23;;;;;;;9.30;6.20;;;;;;;;;;4992702;28;20677;-75
2022/06/14 04:13:59;;;;;;;8.57;5.60;;;;;;;;;;4993335;28;20195;-75
2022/06/14 04:16:29;;;;;;;8.37;5.63;;;;;;;;;;5004935;28;20180;-76
2022/06/14 04:19:14;;;;;;;8.60;5.83;;;;;;;;;;4997160;28;20195;-77
2022/06/14 04:21:50;;;;;;;7.73;6.13;;;;;;;;;;5001753;28;20208;-77
2022/06/14 04:24:17;;;;;;;7.17;5.50;;;;;;;;;;4994236;28;20223;-77
2022/06/14 04:26:47;;;;;;;6.47;5.40;;;;;;;;;;5000940;28;20564;-77
2022/06/14 04:29:15;;;;;;;6.23;5.10;;;;;;;;;;4993466;28;20191;-77
2022/06/14 04:31:47;;;;;;;6.03;4.30;;;;;;;;;;4992041;28;20277;-77
2022/06/14 04:34:32;;;;;;;4.47;3.70;;;;;;;;;;4990165;28;20188;-77
2022/06/14 04:37:37;;;;;;;5.73;4.83;;;;;;;;;;4998710;28;20187;-77
2022/06/14 04:40:15;;;;;;;6.70;5.80;;;;;;;;;;4936134;29;20195;-77
2022/06/14 04:42:44;;;;;;;8.63;5.23;;;;;;;;;;4987628;28;20223;-76
2022/06/14 04:45:17;;;;;;;7.53;5.23;;;;;;;;;;4992688;28;20226;-76
2022/06/14 04:47:52;;;;;;;7.60;5.10;;;;;;;;;;4997692;28;20214;-76
2022/06/14 04:50:22;;;;;;;6.13;5.20;;;;;;;;;;4994948;28;20276;-76
2022/06/14 04:52:53;;;;;;;7.07;5.03;;;;;;;;;;4985066;28;20681;-76
2022/06/14 04:55:23;;;;;;;6.17;5.10;;;;;;;;;;4997217;28;20211;-76
2022/06/14 04:58:04;;;;;;;5.27;4.40;;;;;;;;;;5003164;28;20207;-76
2022/06/14 05:00:43;;;;;;;7.40;4.90;;;;;;;;;;5000055;28;20191;-76
2022/06/14 05:03:19;;;;;;;5.37;4.80;;;;;;;;;;5010813;28;20273;-76
2022/06/14 05:05:50;;;;;;;5.67;4.30;;;;;;;;;;4992102;28;20207;-76
2022/06/14 05:08:26;;;;;;;5.80;4.07;;;;;;;;;;5010076;28;20198;-76
2022/06/14 05:10:53;;;;;;;5.13;4.20;;;;;;;;;;4994301;28;20349;-76
2022/06/14 05:13:23;;;;;;;5.13;3.83;;;;;;;;;;4992825;28;20180;-78
2022/06/14 05:15:53;;;;;;;5.83;3.77;;;;;;;;;;5016550;28;20191;-78
2022/06/14 05:18:27;;;;;;;5.67;4.27;;;;;;;;;;4992653;28;20211;-79
2022/06/14 05:21:21;;;;;;;5.87;3.40;;;;;;;;;;4994325;28;20563;-78
2022/06/14 05:23:56;;;;;;;6.07;4.17;;;;;;;;;;4995339;28;20342;-78
2022/06/14 05:26:44;;;;;;;7.00;3.67;;;;;;;;;;5008575;28;20215;-77
2022/06/14 05:29:29;;;;;;;9.20;4.63;;;;;;;;;;5000551;28;20199;-78
2022/06/14 05:32:02;;;;;;;6.00;4.37;;;;;;;;;;4994252;28;20214;-78
2022/06/14 05:34:33;;;;;;;7.27;4.20;;;;;;;;;;4992197;28;20606;-78
2022/06/14 05:37:21;;;;;;;5.37;4.20;;;;;;;;;;5009706;28;20266;-78
2022/06/14 05:39:58;;;;;;;4.53;3.47;;;;;;;;;;4994879;28;20200;-78
2022/06/14 05:42:33;;;;;;;5.73;4.30;;;;;;;;;;4994859;28;20219;-78
2022/06/14 05:45:06;;;;;;;5.73;4.37;;;;;;;;;;4998147;28;20183;-79
2022/06/14 05:47:43;;;;;;;5.63;4.20;;;;;;;;;;4998944;28;20537;-73
2022/06/14 05:50:26;;;;;;;4.43;3.97;;;;;;;;;;5001073;28;20188;-73
2022/06/14 05:53:03;;;;;;;5.03;4.50;;;;;;;;;;4989489;28;20533;-73
2022/06/14 05:55:44;;;;;;;4.67;3.43;;;;;;;;;;5003172;28;20195;-76
2022/06/14 05:58:17;;;;;;;4.13;3.17;;;;;;;;;;4989574;28;20800;-74
2022/06/14 06:00:58;;;;;;;3.93;2.93;;;;;;;;;;5008039;28;20207;-73
2022/06/14 06:03:47;;;;;;;4.90;3.00;;;;;;;;;;4993886;28;20202;-73
2022/06/14 06:06:39;;;;;;;4.67;2.80;;;;;;;;;;4999290;28;20210;-73
2022/06/14 06:09:10;;;;;;;4.97;3.10;;;;;;;;;;4981265;28;20270;-72
2022/06/14 06:11:47;;;;;;;4.47;2.50;;;;;;;;;;4988054;28;20204;-72
2022/06/14 06:14:24;;;;;;;2.73;2.20;;;;;;;;;;4997680;28;20176;-72
2022/06/14 06:19:33;;;;;;;3.90;2.77;;;;;;;;;;5005175;28;20194;-73
2022/06/14 06:22:14;;;;;;;3.70;2.40;;;;;;;;;;4996491;28;20211;-72
2022/06/14 06:24:51;;;;;;;4.37;2.80;;;;;;;;;;5005362;28;20190;-73
2022/06/14 06:27:23;;;;;;;4.17;2.80;;;;;;;;;;4992773;28;20250;-72
2022/06/14 06:29:54;;;;;;;4.17;2.83;;;;;;;;;;4996542;28;20207;-72
2022/06/14 06:32:40;;;;;;;4.07;3.07;;;;;;;;;;4995495;28;20665;-72
2022/06/14 06:35:46;;;;;;;7.43;2.70;;;;;;;;;;5000742;28;20179;-72
2022/06/14 06:38:59;;;;;;;3.43;2.57;;;;;;;;;;4994379;28;21133;-73
2022/06/14 06:41:56;;;;;;;5.93;2.77;;;;;;;;;;4988834;28;20254;-72
2022/06/14 06:44:33;;;;;;;5.37;2.70;;;;;;;;;;4991647;28;20286;-71
2022/06/14 06:47:08;;;;;;;5.93;2.80;;;;;;;;;;4991698;28;20207;-71
2022/06/14 06:50:00;;;;;;;4.27;3.10;;;;;;;;;;4997608;28;20183;-72
2022/06/14 06:52:40;;;;;;;3.27;2.93;;;;;;;;;;4986559;28;20208;-72
2022/06/14 06:55:16;;;;;;;5.63;3.50;;;;;;;;;;5003241;28;20192;-73
2022/06/14 06:57:52;;;;;;;4.83;3.30;;;;;;;;;;4990988;28;20187;-72
2022/06/14 07:00:25;;;;;;;6.77;4.10;;;;;;;;;;5005556;28;20608;-72
2022/06/14 07:03:04;;;;;;;6.23;3.73;;;;;;;;;;4993060;28;20219;-72
2022/06/14 07:05:33;;;;;;;6.93;3.77;;;;;;;;;;5001957;28;20190;-73
2022/06/14 07:08:16;;;;;;;6.13;3.90;;;;;;;;;;4994029;28;20241;-71
2022/06/14 07:10:53;;;;;;;6.07;4.23;;;;;;;;;;4992993;28;20557;-75
2022/06/14 07:13:40;;;;;;;5.23;3.80;;;;;;;;;;4995963;28;20561;-74
2022/06/14 07:16:38;;;;;;;7.70;4.27;;;;;;;;;;4988171;28;20195;-71
2022/06/14 07:19:15;;;;;;;7.90;4.20;;;;;;;;;;4976837;28;20254;-72
2022/06/14 07:21:52;;;;;;;7.63;3.80;;;;;;;;;;4994699;28;20599;-71
2022/06/14 07:24:29;;;;;;;7.67;3.30;;;;;;;;;;4992605;28;20191;-76
2022/06/14 07:27:12;;;;;;;5.03;3.20;;;;;;;;;;5001021;28;20196;-74
2022/06/14 07:29:47;;;;;;;5.37;3.47;;;;;;;;;;4998004;28;20214;-74
2022/06/14 07:32:17;;;;;;;4.77;3.30;;;;;;;;;;4996669;28;20218;-74
2022/06/14 07:34:51;;;;;;;4.90;3.50;;;;;;;;;;4980718;28;21804;-74
2022/06/14 07:37:35;;;;;;;5.20;3.20;;;;;;;;;;4993761;28;20214;-74
2022/06/14 07:40:14;;;;;;;5.23;3.30;;;;;;;;;;5001124;28;20183;-74
2022/06/14 07:42:50;;;;;;;5.73;3.17;;;;;;;;;;4994942;28;20188;-74
2022/06/14 07:45:28;;;;;;;7.20;3.40;;;;;;;;;;4994531;28;20183;-74
2022/06/14 07:48:04;;;;;;;7.40;3.30;;;;;;;;;;5002279;28;20224;-74
2022/06/14 07:50:45;;;;;;;6.97;3.30;;;;;;;;;;4993272;28;20249;-74
2022/06/14 07:53:21;;;;;;;2.97;2.53;;;;;;;;;;5000750;28;20220;-74
2022/06/14 07:55:55;;;;;;;5.60;2.80;;;;;;;;;;5003776;28;20198;-74
2022/06/14 07:58:47;;;;;;;3.93;2.60;;;;;;;;;;5005673;28;20227;-72
2022/06/14 08:01:27;;;;;;;5.13;2.47;;;;;;;;;;4996772;28;20298;-72
2022/06/14 08:04:01;;;;;;;5.00;2.43;;;;;;;;;;5001167;28;20203;-73
2022/06/14 08:06:58;;;;;;;3.67;2.20;;;;;;;;;;4996188;28;20219;-73
2022/06/14 08:09:45;;;;;;;4.47;2.40;;;;;;;;;;4999418;28;20207;-73
2022/06/14 08:12:33;;;;;;;3.00;2.23;;;;;;;;;;4984315;28;20302;-73
2022/06/14 08:15:13;;;;;;;3.53;2.10;;;;;;;;;;5001443;28;20229;-73
2022/06/14 08:17:57;;;;;;;3.43;2.00;;;;;;;;;;4991796;28;20258;-73
2022/06/14 08:20:48;;;;;;;3.90;2.17;;;;;;;;;;5002233;28;20223;-73
2022/06/14 08:23:44;;;;;;;4.27;2.00;;;;;;;;;;4999562;28;20191;-72
2022/06/14 08:26:15;;;;;;;5.33;2.27;;;;;;;;;;4996660;28;20187;-73
2022/06/14 08:28:46;;;;;;;3.07;1.97;;;;;;;;;;4995681;28;20187;-73
2022/06/14 08:31:17;;;;;;;4.47;2.10;;;;;;;;;;5002513;28;20665;-73
2022/06/14 08:33:57;;;;;;;3.50;1.90;;;;;;;;;;5004755;28;20179;-73
2022/06/14 08:36:30;;;;;;;3.90;2.33;;;;;;;;;;5007217;28;20183;-73
2022/06/14 08:38:59;;;;;;;3.73;2.17;;;;;;;;;;4998622;28;20190;-73
2022/06/14 08:41:41;;;;;;;3.60;2.10;;;;;;;;;;5004969;28;21162;-73
2022/06/14 08:44:29;;;;;;;3.13;2.00;;;;;;;;;;5005764;28;20194;-73
2022/06/14 08:47:03;;;;;;;3.50;2.10;;;;;;;;;;5016959;28;20273;-73
2022/06/14 08:49:32;;;;;;;3.20;2.07;;;;;;;;;;5002281;28;20187;-73
2022/06/14 08:52:17;;;;;;;4.10;2.10;;;;;;;;;;5001816;28;20195;-73
2022/06/14 08:54:43;;;;;;;3.40;2.17;;;;;;;;;;4995723;28;20261;-73
2022/06/14 08:57:19;;;;;;;4.37;2.20;;;;;;;;;;5012805;28;20724;-73
2022/06/14 09:00:04;;;;;;;4.30;2.40;;;;;;;;;;4993954;28;20233;-73
2022/06/14 09:02:30;;;;;;;4.50;2.43;;;;;;;;;;4995746;28;20207;-73
2022/06/14 09:05:15;;;;;;;3.73;2.30;;;;;;;;;;4999371;28;20184;-75
2022/06/14 09:08:00;;;;;;;4.67;2.20;;;;;;;;;;4995701;28;20262;-72
2022/06/14 09:10:56;;;;;;;4.87;2.50;;;;;;;;;;4995502;28;20195;-73
2022/06/14 09:13:37;;;;;;;4.17;2.37;;;;;;;;;;4993786;28;20199;-73
2022/06/14 09:16:09;;;;;;;5.37;2.40;;;;;;;;;;4994506;28;20187;-73
2022/06/14 09:18:36;;;;;;;6.43;2.30;;;;;;;;;;4991588;28;20226;-75
2022/06/14 09:21:21;;;;;;;3.67;2.23;;;;;;;;;;4992556;28;20193;-73
2022/06/14 09:24:04;;;;;;;6.03;2.60;;;;;;;;;;4990784;28;20540;-73
2022/06/14 09:26:43;;;;;;;4.27;2.30;;;;;;;;;;5000586;28;20204;-73
2022/06/14 09:29:23;;;;;;;4.07;2.13;;;;;;;;;;4993559;28;20207;-73
2022/06/14 09:31:49;;;;;;;4.67;2.33;;;;;;;;;;4990278;28;20200;-73
2022/06/14 09:34:31;;;;;;;3.03;2.30;;;;;;;;;;4993840;28;20739;-73
2022/06/14 09:37:16;;;;;;;4.00;2.40;;;;;;;;;;4998642;28;20186;-73
2022/06/14 09:39:53;;;;;;;4.90;2.37;;;;;;;;;;4997884;28;20183;-73
2022/06/14 09:42:22;;;;;;;3.63;2.20;;;;;;;;;;4989042;28;20207;-73
2022/06/14 09:45:08;;;;;;;3.50;2.20;;;;;;;;;;4993847;28;20184;-73
2022/06/14 09:47:47;;;;;;;3.50;2.27;;;;;;;;;;5004582;28;20217;-73
2022/06/14 09:50:33;;;;;;;3.87;2.20;;;;;;;;;;4995984;28;20171;-72
2022/06/14 09:53:15;;;;;;;6.33;2.70;;;;;;;;;;5006488;28;20512;-73
2022/06/14 09:55:59;;;;;;;5.10;2.40;;;;;;;;;;5004435;28;20195;-73
2022/06/14 09:58:44;;;;;;;4.10;2.30;;;;;;;;;;4993233;28;20215;-73
2022/06/14 10:01:17;;;;;;;4.47;2.50;;;;;;;;;;4996065;28;20575;-73
2022/06/14 10:04:02;;;;;;;4.57;2.30;;;;;;;;;;4989591;28;20657;-73
2022/06/14 10:06:49;;;;;;;5.80;2.50;;;;;;;;;;4990027;28;20223;-72
2022/06/14 10:09:28;;;;;;;5.60;2.50;;;;;;;;;;4993583;28;20188;-73
2022/06/14 10:11:55;;;;;;;5.37;2.63;;;;;;;;;;4993988;28;20211;-73
2022/06/14 10:14:40;;;;;;;6.23;2.97;;;;;;;;;;4990915;28;20179;-74
2022/06/14 10:17:25;;;;;;;6.13;2.40;;;;;;;;;;4990632;28;20188;-72
2022/06/14 10:20:13;;;;;;;3.77;2.47;;;;;;;;;;4997580;28;20172;-73
2022/06/14 10:22:58;;;;;;;5.87;2.00;;;;;;;;;;4996368;28;20262;-73
2022/06/14 10:28:11;;;;;;;6.20;2.70;;;;;;;;;;5001111;28;20191;-73
2022/06/14 10:28:39;;;;;;;4.67;2.40;;;;;;;;;;4992395;28;20282;-75
2022/06/14 10:31:10;;;;;;;7.40;4.70;;;;;;;;;;4994955;28;20309;-76
2022/06/14 10:33:51;;;;;;;4.00;2.73;;;;;;;;;;4998453;28;20196;-77
2022/06/14 10:36:38;;;;;;;7.77;2.50;;;;;;;;;;4987520;28;20263;-75
2022/06/14 10:39:26;;;;;;;4.13;2.53;;;;;;;;;;4998795;28;20608;-77
2022/06/14 10:42:21;;;;;;;3.77;2.30;;;;;;;;;;5009123;28;20554;-78
2022/06/14 10:45:32;;;;;;;3.43;2.10;;;;;;;;;;4996139;28;20180;-76
2022/06/14 10:48:40;;;;;;;4.03;2.37;;;;;;;;;;4989819;28;20287;-77
2022/06/14 10:51:26;;;;;;;4.93;2.80;;;;;;;;;;5000914;28;20207;-76
2022/06/14 10:53:59;;;;;;;3.70;2.30;;;;;;;;;;5002977;28;20192;-73
2022/06/14 10:56:43;;;;;;;4.40;2.33;;;;;;;;;;4990623;28;20279;-74
2022/06/14 10:59:20;;;;;;;6.63;2.70;;;;;;;;;;5004839;28;20183;-74
2022/06/14 11:02:21;;;;;;;5.13;2.37;;;;;;;;;;4990303;28;20272;-75
2022/06/14 11:05:35;;;;;;;4.17;2.40;;;;;;;;;;4990912;28;20184;-76
2022/06/14 11:08:33;;;;;;;3.77;2.20;;;;;;;;;;4985914;28;20212;-76
2022/06/14 11:11:31;;;;;;;3.37;2.10;;;;;;;;;;4988573;28;20200;-75
2022/06/14 11:14:12;;;;;;;5.37;2.30;;;;;;;;;;4992579;28;20234;-76
2022/06/14 11:17:00;;;;;;;3.57;1.93;;;;;;;;;;4996583;28;20214;-76
2022/06/14 11:19:38;;;;;;;4.87;2.40;;;;;;;;;;4993790;28;20263;-76
2022/06/14 11:22:13;;;;;;;3.17;2.20;;;;;;;;;;4993486;28;20208;-77
2022/06/14 11:25:00;;;;;;;4.00;2.30;;;;;;;;;;4995470;28;20194;-76
2022/06/14 11:27:51;;;;;;;4.60;2.57;;;;;;;;;;5004347;28;20282;-76
2022/06/14 11:30:40;;;;;;;4.43;2.40;;;;;;;;;;4996994;28;20188;-76
2022/06/14 11:33:30;;;;;;;5.33;2.50;;;;;;;;;;5020253;28;20171;-76
2022/06/14 11:36:28;;;;;;;3.97;2.37;;;;;;;;;;4986971;28;20210;-76
2022/06/14 11:39:03;;;;;;;5.20;2.30;;;;;;;;;;4990214;28;20852;-76
2022/06/14 11:41:44;;;;;;;2.67;1.97;;;;;;;;;;4993420;28;20202;-76
2022/06/14 11:44:18;;;;;;;4.90;2.50;;;;;;;;;;5000325;28;20190;-76
2022/06/14 11:47:07;;;;;;;4.03;2.37;;;;;;;;;;5007764;28;20689;-76
2022/06/14 11:49:41;;;;;;;3.03;2.17;;;;;;;;;;5001756;28;20179;-76
2022/06/14 11:52:18;;;;;;;5.43;2.20;;;;;;;;;;4994288;28;20231;-79
2022/06/14 11:54:49;;;;;;;5.97;2.07;;;;;;;;;;4993546;28;20684;-75
2022/06/14 11:57:19;;;;;;;4.23;2.10;;;;;;;;;;5010589;28;20227;-76
2022/06/14 12:00:06;;;;;;;3.77;2.10;;;;;;;;;;5016122;28;20247;-75
2022/06/14 12:02:43;;;;;;;2.90;1.90;;;;;;;;;;4991151;28;20209;-75
2022/06/14 12:05:28;;;;;;;4.37;2.20;;;;;;;;;;4996253;28;20299;-74
2022/06/14 12:08:21;;;;;;;2.63;2.30;;;;;;;;;;4997271;28;20207;-74
2022/06/14 12:10:53;;;;;;;3.13;2.10;;;;;;;;;;4991252;28;20296;-73
2022/06/14 12:13:43;;;;;;;3.60;1.97;;;;;;;;;;4990410;28;20176;-75
2022/06/14 12:16:17;;;;;;;4.27;2.10;;;;;;;;;;4990826;28;20208;-72
2022/06/14 12:18:47;;;;;;;4.23;2.23;;;;;;;;;;4995163;28;20568;-73
2022/06/14 12:21:21;;;;;;;6.40;2.30;;;;;;;;;;4992970;28;20736;-73
2022/06/14 12:23:50;;;;;;;4.50;2.13;;;;;;;;;;4992439;28;20240;-72
2022/06/14 12:26:37;;;;;;;4.27;2.10;;;;;;;;;;4991576;28;20194;-76
2022/06/14 12:29:08;;;;;;;2.67;1.80;;;;;;;;;;4992498;28;20197;-74
2022/06/14 12:31:53;;;;;;;2.07;1.80;;;;;;;;;;4987363;28;20265;-73
2022/06/14 12:34:20;;;;;;;4.63;2.00;;;;;;;;;;4984718;28;20209;-76
2022/06/14 12:36:54;;;;;;;2.57;1.80;;;;;;;;;;4988509;28;20720;-75
2022/06/14 12:39:23;;;;;;;2.77;1.83;;;;;;;;;;4992167;28;20205;-73
2022/06/14 12:42:00;;;;;;;4.73;1.83;;;;;;;;;;4994017;28;20577;-74
2022/06/14 12:44:49;;;;;;;3.37;2.10;;;;;;;;;;4987193;28;20192;-73
2022/06/14 12:47:18;;;;;;;3.73;2.10;;;;;;;;;;4988093;28;20209;-73
2022/06/14 12:49:47;;;;;;;3.27;2.03;;;;;;;;;;4989068;28;20186;-75
2022/06/14 12:52:19;;;;;;;3.37;1.90;;;;;;;;;;4991572;28;20224;-74
2022/06/14 12:55:04;;;;;;;3.90;2.10;;;;;;;;;;4987468;28;20271;-75
2022/06/14 12:57:45;;;;;;;3.50;1.90;;;;;;;;;;4989286;28;20194;-75
2022/06/14 13:00:12;;;;;;;3.70;2.07;;;;;;;;;;4993589;28;20593;-74
2022/06/14 13:02:45;;;;;;;4.07;2.30;;;;;;;;;;4977151;28;20216;-74
2022/06/14 13:05:11;;;;;;;3.70;1.80;;;;;;;;;;4990415;28;20271;-74
2022/06/14 13:07:49;;;;;;;2.93;2.13;;;;;;;;;;4992808;28;20208;-76
2022/06/14 13:10:22;;;;;;;3.37;2.10;;;;;;;;;;4993959;28;20206;-74
2022/06/14 13:12:54;;;;;;;3.23;2.10;;;;;;;;;;4991546;28;20185;-74
2022/06/14 13:15:26;;;;;;;3.57;2.03;;;;;;;;;;4996325;28;20687;-74
2022/06/14 13:18:14;;;;;;;3.67;1.90;;;;;;;;;;4986585;28;20869;-74
2022/06/14 13:20:45;;;;;;;3.10;1.70;;;;;;;;;;4986810;28;20237;-75
2022/06/14 13:23:32;;;;;;;3.37;1.90;;;;;;;;;;4993126;28;20180;-75
2022/06/14 13:26:17;;;;;;;6.20;2.10;;;;;;;;;;5013814;28;20549;-74
2022/06/14 13:28:55;;;;;;;3.00;1.90;;;;;;;;;;4989401;28;20188;-75
2022/06/14 13:31:24;;;;;;;3.67;2.00;;;;;;;;;;4989829;28;20263;-76
2022/06/14 13:34:00;;;;;;;2.73;1.90;;;;;;;;;;4992694;28;20292;-74
2022/06/14 13:36:34;;;;;;;3.73;2.00;;;;;;;;;;4988311;28;20186;-74
2022/06/14 13:39:11;;;;;;;2.73;1.90;;;;;;;;;;4988599;28;20312;-75
2022/06/14 13:42:00;;;;;;;4.00;2.20;;;;;;;;;;4984813;28;20208;-75
2022/06/14 13:44:48;;;;;;;2.50;1.70;;;;;;;;;;4991502;28;20280;-74
2022/06/14 13:47:26;;;;;;;2.00;1.70;;;;;;;;;;4987011;28;20274;-75
2022/06/14 13:50:12;;;;;;;2.75;1.80;;;;;;;;;;4994578;28;20193;-75
2022/06/14 13:52:42;;;;;;;2.47;1.85;;;;;;;;;;4988687;28;20215;-74
2022/06/14 13:55:09;;;;;;;3.05;1.90;;;;;;;;;;4984353;28;20191;-75
2022/06/14 13:57:38;;;;;;;2.80;1.60;;;;;;;;;;4990394;28;20226;-74
2022/06/14 14:00:16;;;;;;;2.58;1.70;;;;;;;;;;4988836;28;20247;-74
2022/06/14 14:02:52;;;;;;;28.10;1.98;;;;;;;;;;4984887;28;20206;-76
2022/06/14 14:05:31;;;;;;;3.53;1.80;;;;;;;;;;5006410;28;20180;-78
2022/06/14 14:08:10;;;;;;;3.33;1.90;;;;;;;;;;4989201;28;21021;-75
2022/06/14 14:10:43;;;;;;;4.15;1.85;;;;;;;;;;5010960;28;20179;-79
2022/06/14 14:13:25;;;;;;;3.05;1.60;;;;;;;;;;4994093;28;20295;-81
2022/06/14 14:16:01;;;;;;;1.90;1.60;;;;;;;;;;4985021;28;20175;-77
2022/06/14 14:18:46;;;;;;;2.90;1.60;;;;;;;;;;4981671;28;20198;-77
2022/06/14 14:21:19;;;;;;;3.25;1.77;;;;;;;;;;4987770;28;20196;-75
2022/06/14 14:24:08;;;;;;;3.10;1.80;;;;;;;;;;4987526;28;20216;-76
2022/06/14 14:26:36;;;;;;;2.00;1.80;;;;;;;;;;4972952;28;20216;-77
2022/06/14 14:29:08;;;;;;;3.38;1.95;;;;;;;;;;4990733;28;20972;-77
2022/06/14 14:31:34;;;;;;;3.92;1.70;;;;;;;;;;5010163;28;20686;-79
2022/06/14 14:34:01;;;;;;;3.58;1.98;;;;;;;;;;4993174;28;21057;-77
2022/06/14 14:36:46;;;;;;;2.45;1.65;;;;;;;;;;4989220;28;20193;-79
2022/06/14 14:39:20;;;;;;;2.50;1.95;;;;;;;;;;4996729;28;20303;-77
2022/06/14 14:42:07;;;;;;;3.40;1.85;;;;;;;;;;4994079;28;20309;-78
2022/06/14 14:44:33;;;;;;;3.47;1.92;;;;;;;;;;4961101;28;20199;-77
2022/06/14 14:47:18;;;;;;;5.22;2.00;;;;;;;;;;4994734;28;20744;-77
2022/06/14 14:49:49;;;;;;;3.80;1.60;;;;;;;;;;4995879;28;20218;-77
2022/06/14 14:52:34;;;;;;;3.42;1.90;;;;;;;;;;4998255;28;20213;-78
2022/06/14 14:55:03;;;;;;;2.60;1.80;;;;;;;;;;4997329;28;20203;-77
2022/06/14 14:57:48;;;;;;;3.95;1.90;;;;;;;;;;5000543;28;20212;-77
2022/06/14 15:05:20;;;;;;;2.72;1.88;;;;;;;;;;5000304;28;20187;-78
2022/06/14 15:06:22;;;;;;;3.00;1.73;;;;;;;;;;4997198;28;20193;-77
2022/06/14 15:08:55;;;;;;;2.85;1.80;;;;;;;;;;4989369;28;20202;-77
2022/06/14 15:11:23;;;;;;;2.95;1.90;;;;;;;;;;4998251;28;20210;-77
2022/06/14 15:13:51;;;;;;;2.33;1.90;;;;;;;;;;4995973;28;20182;-78
2022/06/14 15:16:41;;;;;;;3.92;1.70;;;;;;;;;;4996724;28;20183;-77
2022/06/14 15:22:09;;;;;;;3.50;1.85;;;;;;;;;;5000913;28;21058;-78
2022/06/14 15:24:36;;;;;;;4.82;2.33;;;;;;;;;;4999705;28;20190;-77
2022/06/14 15:27:07;;;;;;;4.10;1.70;;;;;;;;;;5000742;28;20239;-78
2022/06/14 15:29:34;;;;;;;2.25;1.55;;;;;;;;;;5000813;28;20603;-77
2022/06/14 15:32:02;;;;;;;1.85;1.67;;;;;;;;;;5001476;28;20786;-77
2022/06/14 15:34:40;;;;;;;3.97;1.85;;;;;;;;;;4996359;28;20181;-77
2022/06/14 15:37:09;;;;;;;3.45;1.77;;;;;;;;;;4993165;28;20176;-76
2022/06/14 15:39:35;;;;;;;4.38;1.92;;;;;;;;;;4994135;28;20213;-77
2022/06/14 15:42:23;;;;;;;6.63;1.70;;;;;;;;;;4990693;28;20205;-77
2022/06/14 15:44:50;;;;;;;3.58;1.70;;;;;;;;;;4991968;28;20189;-77
2022/06/14 15:47:17;;;;;;;2.28;2.08;;;;;;;;;;4994936;28;20215;-77
2022/06/14 15:49:48;;;;;;;1.85;1.70;;;;;;;;;;5007585;28;20652;-77
2022/06/14 15:52:17;;;;;;;3.97;2.17;;;;;;;;;;4989415;28;20211;-78
2022/06/14 15:54:46;;;;;;;3.15;1.77;;;;;;;;;;4995825;28;20191;-78
2022/06/14 15:57:15;;;;;;;1.73;1.63;;;;;;;;;;4993189;28;20198;-78